createdAt,value
2023-08-23T00:02:01.169Z,5.85
2023-08-23T00:05:03.219Z,5.78
2023-08-23T00:08:05.578Z,5.93
2023-08-23T00:11:07.663Z,5.40
2023-08-23T00:14:09.687Z,5.65
2023-08-23T00:17:11.789Z,5.50
2023-08-23T00:20:14.150Z,6.85
2023-08-23T00:23:16.181Z,5.53
2023-08-23T00:26:18.264Z,5.03
2023-08-23T00:29:20.249Z,4.50
2023-08-23T00:32:22.308Z,5.47
2023-08-23T00:35:24.798Z,5.78
2023-08-23T00:38:26.926Z,6.38
2023-08-23T00:41:29.072Z,6.55
2023-08-23T00:44:31.098Z,5.15
2023-08-23T00:47:33.142Z,5.68
2023-08-23T00:50:35.902Z,5.30
2023-08-23T00:53:38.827Z,5.35
2023-08-23T00:56:41.394Z,4.80
2023-08-23T00:59:43.603Z,6.10
2023-08-23T01:02:46.061Z,4.95
2023-08-23T01:06:22.582Z,5.00
2023-08-23T01:09:28.126Z,4.85
2023-08-23T01:12:48.785Z,5.22
2023-08-23T01:15:55.509Z,4.97
2023-08-23T01:18:59.554Z,5.45
2023-08-23T01:22:05.075Z,5.72
2023-08-23T01:25:07.578Z,5.78
2023-08-23T01:28:09.666Z,5.93
2023-08-23T01:31:13.357Z,6.03
2023-08-23T01:34:26.877Z,5.18
2023-08-23T01:37:31.883Z,6.65
2023-08-23T01:40:34.632Z,5.75
2023-08-23T01:43:36.662Z,5.63
2023-08-23T01:46:39.242Z,5.63
2023-08-23T01:49:41.501Z,5.53
2023-08-23T01:52:43.527Z,5.13
2023-08-23T01:55:45.677Z,4.90
2023-08-23T01:58:47.736Z,5.35
2023-08-23T02:01:49.750Z,5.25
2023-08-23T02:04:51.980Z,5.55
2023-08-23T02:07:54.039Z,4.43
2023-08-23T02:10:56.494Z,4.65
2023-08-23T02:13:58.745Z,5.95
2023-08-23T02:17:05.644Z,5.75
2023-08-23T02:20:08.140Z,4.70
2023-08-23T02:23:10.544Z,5.13
2023-08-23T02:26:12.652Z,4.65
2023-08-23T02:29:14.717Z,5.20
2023-08-23T02:32:17.271Z,4.80
2023-08-23T02:35:19.331Z,5.13
2023-08-23T02:38:21.497Z,5.38
2023-08-23T02:41:23.710Z,5.63
2023-08-23T02:44:27.554Z,6.18
2023-08-23T02:47:29.664Z,5.97
2023-08-23T02:50:31.697Z,6.13
2023-08-23T02:53:33.852Z,5.57
2023-08-23T02:56:37.038Z,5.60
2023-08-23T02:59:40.788Z,4.85
2023-08-23T03:02:42.896Z,5.35
2023-08-23T03:05:59.313Z,5.75
2023-08-23T03:09:01.404Z,4.88
2023-08-23T03:12:03.646Z,6.50
2023-08-23T03:15:06.528Z,5.68
2023-08-23T03:18:08.869Z,5.53
2023-08-23T03:21:10.980Z,5.38
2023-08-23T03:24:15.400Z,5.07
2023-08-23T03:27:19.940Z,4.95
2023-08-23T03:30:22.748Z,6.28
2023-08-23T03:33:24.911Z,5.15
2023-08-23T03:36:26.982Z,6.45
2023-08-23T03:39:29.074Z,6.65
2023-08-23T03:42:31.129Z,6.25
2023-08-23T03:45:35.247Z,5.85
2023-08-23T03:48:37.559Z,6.97
2023-08-23T03:51:39.609Z,7.95
2023-08-23T03:54:41.932Z,7.18
2023-08-23T03:57:44.026Z,8.63
2023-08-23T04:00:51.019Z,9.32
2023-08-23T04:03:53.213Z,9.07
2023-08-23T04:06:55.633Z,8.27
2023-08-23T04:09:57.676Z,8.15
2023-08-23T04:12:59.825Z,8.13
2023-08-23T04:16:02.032Z,8.30
2023-08-23T04:19:04.249Z,7.70
2023-08-23T04:22:06.350Z,7.95
2023-08-23T04:25:09.027Z,8.20
2023-08-23T04:28:11.182Z,8.48
2023-08-23T04:31:13.322Z,7.97
2023-08-23T04:34:22.413Z,7.85
2023-08-23T04:37:24.533Z,7.75
2023-08-23T04:40:26.791Z,7.68
2023-08-23T04:43:30.637Z,6.65
2023-08-23T04:46:33.034Z,7.72
2023-08-23T04:49:35.030Z,7.25
2023-08-23T04:52:37.120Z,8.55
2023-08-23T04:55:39.212Z,8.82
2023-08-23T04:58:41.231Z,8.13
2023-08-23T05:01:45.342Z,6.75
2023-08-23T05:04:47.688Z,7.22
2023-08-23T05:07:50.885Z,6.97
2023-08-23T05:10:55.140Z,6.97
2023-08-23T05:13:57.250Z,7.13
2023-08-23T05:17:00.186Z,5.60
2023-08-23T05:20:02.154Z,7.43
2023-08-23T05:23:04.731Z,7.30
2023-08-23T05:26:06.941Z,8.88
2023-08-23T05:29:09.111Z,7.30
2023-08-23T05:32:11.899Z,8.52
2023-08-23T05:35:14.319Z,8.40
2023-08-23T05:38:16.784Z,8.13
2023-08-23T05:41:19.097Z,8.85
2023-08-23T05:44:21.186Z,7.93
2023-08-23T05:47:25.067Z,8.73
2023-08-23T05:50:27.357Z,8.73
2023-08-23T05:53:29.486Z,10.40
2023-08-23T05:56:31.413Z,8.38
2023-08-23T05:59:34.652Z,7.63
2023-08-23T06:02:37.179Z,9.75
2023-08-23T06:05:39.359Z,9.85
2023-08-23T06:08:41.493Z,7.68
2023-08-23T06:11:43.983Z,8.63
2023-08-23T06:14:46.208Z,8.65
2023-08-23T06:17:48.735Z,8.18
2023-08-23T06:20:51.246Z,8.75
2023-08-23T06:23:53.535Z,8.13
2023-08-23T06:26:55.697Z,8.75
2023-08-23T06:29:57.953Z,8.52
2023-08-23T06:33:00.076Z,6.97
2023-08-23T06:36:02.188Z,11.65
2023-08-23T06:39:05.021Z,7.75
2023-08-23T06:42:07.173Z,9.93
2023-08-23T06:45:10.933Z,10.98
2023-08-23T06:48:16.334Z,7.57
2023-08-23T06:51:18.744Z,8.80
2023-08-23T06:54:21.035Z,7.43
2023-08-23T06:57:30.155Z,8.10
2023-08-23T07:00:32.299Z,9.32
2023-08-23T07:03:34.617Z,8.57
2023-08-23T07:06:36.906Z,9.20
2023-08-23T07:09:39.079Z,9.63
2023-08-23T07:12:41.232Z,9.52
2023-08-23T07:15:43.450Z,8.50
2023-08-23T07:18:45.532Z,8.68
2023-08-23T07:21:47.727Z,7.38
2023-08-23T07:24:49.910Z,8.35
2023-08-23T07:27:51.930Z,8.32
2023-08-23T07:30:58.531Z,10.13
2023-08-23T07:34:00.997Z,9.95
2023-08-23T07:37:03.213Z,8.80
2023-08-23T07:40:07.670Z,9.48
2023-08-23T07:43:09.965Z,9.20
2023-08-23T07:46:12.034Z,8.05
2023-08-23T07:49:17.603Z,9.60
2023-08-23T07:52:19.759Z,9.93
2023-08-23T07:55:21.882Z,9.77
2023-08-23T07:58:24.019Z,9.18
2023-08-23T08:01:28.401Z,10.35
2023-08-23T08:04:31.321Z,10.68
2023-08-23T08:08:06.063Z,9.40
2023-08-23T08:10:55.446Z,6.68
2023-08-23T08:13:57.772Z,10.95
2023-08-23T08:17:00.010Z,9.45
2023-08-23T08:20:06.798Z,12.90
2023-08-23T08:23:08.858Z,10.70
2023-08-23T08:26:12.945Z,8.25
2023-08-23T08:29:15.024Z,7.43
2023-08-23T08:32:17.157Z,8.35
2023-08-23T08:35:19.883Z,6.63
2023-08-23T08:38:23.814Z,8.00
2023-08-23T08:41:26.441Z,6.63
2023-08-23T08:44:28.896Z,7.57
2023-08-23T08:47:31.107Z,6.95
2023-08-23T08:50:34.653Z,5.80
2023-08-23T08:53:38.264Z,6.35
2023-08-23T08:56:41.837Z,5.93
2023-08-23T08:59:46.795Z,5.55
2023-08-23T09:02:53.152Z,7.30
2023-08-23T09:05:55.410Z,7.75
2023-08-23T09:09:00.030Z,4.95
2023-08-23T09:12:02.280Z,5.15
2023-08-23T09:15:08.297Z,5.97
2023-08-23T09:18:11.644Z,4.85
2023-08-23T09:21:14.695Z,6.05
2023-08-23T09:24:18.068Z,5.22
2023-08-23T09:27:36.929Z,5.70
2023-08-23T09:30:41.286Z,6.22
2023-08-23T09:33:43.846Z,6.20
2023-08-23T09:36:46.766Z,7.60
2023-08-23T09:39:48.897Z,6.85
2023-08-23T09:42:52.265Z,6.22
2023-08-23T09:45:54.721Z,6.93
2023-08-23T09:48:58.481Z,5.90
2023-08-23T09:52:04.302Z,6.75
2023-08-23T09:55:15.492Z,5.55
2023-08-23T09:58:18.634Z,5.60
2023-08-23T10:01:21.562Z,5.72
2023-08-23T10:04:31.023Z,6.88
2023-08-23T10:07:37.001Z,5.97
2023-08-23T10:10:43.606Z,6.07
2023-08-23T10:13:48.379Z,4.65
2023-08-23T10:16:51.749Z,5.03
2023-08-23T10:19:54.249Z,6.45
2023-08-23T10:22:59.272Z,5.22
2023-08-23T10:26:03.439Z,6.07
2023-08-23T10:29:10.902Z,4.93
2023-08-23T10:32:13.000Z,5.00
2023-08-23T10:35:33.271Z,5.00
2023-08-23T10:38:36.082Z,6.32
2023-08-23T10:41:38.384Z,5.57
2023-08-23T10:44:48.409Z,4.28
2023-08-23T10:47:52.453Z,5.00
2023-08-23T10:50:55.832Z,5.55
2023-08-23T10:53:58.980Z,4.90
2023-08-23T10:57:01.226Z,4.38
2023-08-23T11:00:04.748Z,5.13
2023-08-23T11:03:08.293Z,4.40
2023-08-23T11:06:10.829Z,4.60
2023-08-23T11:09:13.021Z,5.07
2023-08-23T11:12:15.008Z,4.13
2023-08-23T11:15:17.168Z,4.25
2023-08-23T11:18:19.263Z,5.50
2023-08-23T11:21:22.075Z,8.23
2023-08-23T11:24:24.490Z,4.35
2023-08-23T11:27:26.473Z,5.20
2023-08-23T11:30:28.716Z,5.20
2023-08-23T11:33:33.586Z,5.97
2023-08-23T11:36:37.504Z,5.88
2023-08-23T11:39:39.575Z,6.32
2023-08-23T11:42:41.946Z,4.63
2023-08-23T11:45:44.169Z,5.03
2023-08-23T11:48:46.326Z,4.22
2023-08-23T11:51:51.721Z,5.47
2023-08-23T11:54:54.948Z,4.10
2023-08-23T11:57:57.281Z,5.32
2023-08-23T12:00:59.565Z,5.10
2023-08-23T12:04:02.231Z,5.18
2023-08-23T12:07:04.249Z,6.47
2023-08-23T12:10:10.000Z,5.63
2023-08-23T12:13:13.432Z,6.28
2023-08-23T12:16:15.457Z,4.78
2023-08-23T12:19:30.704Z,6.10
2023-08-23T12:22:33.049Z,6.55
2023-08-23T12:25:35.102Z,7.82
2023-08-23T12:28:38.846Z,5.38
2023-08-23T12:31:40.927Z,6.07
2023-08-23T12:34:42.884Z,5.63
2023-08-23T12:37:44.913Z,5.70
2023-08-23T12:40:47.024Z,4.57
2023-08-23T12:43:49.014Z,5.70
2023-08-23T12:46:51.230Z,5.22
2023-08-23T12:49:53.329Z,5.30
2023-08-23T12:52:55.432Z,6.10
2023-08-23T12:55:57.777Z,5.28
2023-08-23T12:59:00.268Z,5.85
2023-08-23T13:02:02.873Z,6.28
2023-08-23T13:05:05.309Z,5.25
2023-08-23T13:08:07.673Z,5.75
2023-08-23T13:11:09.991Z,5.82
2023-08-23T13:14:12.085Z,5.22
2023-08-23T13:17:14.588Z,5.57
2023-08-23T13:20:16.794Z,5.72
2023-08-23T13:23:18.897Z,12.82
2023-08-23T13:26:20.937Z,5.38
2023-08-23T13:29:23.108Z,4.75
2023-08-23T13:32:27.678Z,5.90
2023-08-23T13:35:30.202Z,6.18
2023-08-23T13:38:32.434Z,7.75
2023-08-23T13:41:34.746Z,8.98
2023-08-23T13:44:36.861Z,7.07
2023-08-23T13:47:39.402Z,6.57
2023-08-23T13:50:41.550Z,6.53
2023-08-23T13:53:47.318Z,6.63
2023-08-23T13:56:49.464Z,7.00
2023-08-23T13:59:51.459Z,7.20
2023-08-23T14:02:53.661Z,7.40
2023-08-23T14:05:59.833Z,6.45
2023-08-23T14:09:01.940Z,6.97
2023-08-23T14:12:04.361Z,7.25
2023-08-23T14:15:07.035Z,6.13
2023-08-23T14:18:09.266Z,4.95
2023-08-23T14:21:11.404Z,7.18
2023-08-23T14:24:14.574Z,7.60
2023-08-23T14:27:16.897Z,6.25
2023-08-23T14:30:19.441Z,7.72
2023-08-23T14:33:21.577Z,5.03
2023-08-23T14:36:23.816Z,5.97
2023-08-23T14:39:26.176Z,6.13
2023-08-23T14:42:28.596Z,6.65
2023-08-23T14:45:30.694Z,6.97
2023-08-23T14:48:32.810Z,6.28
2023-08-23T14:51:35.110Z,6.55
2023-08-23T14:54:37.219Z,6.18
2023-08-23T14:57:39.453Z,7.13
2023-08-23T15:00:41.423Z,6.20
2023-08-23T15:03:43.899Z,7.78
2023-08-23T15:06:46.079Z,8.15
2023-08-23T15:09:48.598Z,5.65
2023-08-23T15:12:50.667Z,5.97
2023-08-23T15:16:03.002Z,5.75
2023-08-23T15:19:05.252Z,6.22
2023-08-23T15:22:07.319Z,5.00
2023-08-23T15:25:10.878Z,4.38
2023-08-23T15:28:13.519Z,7.53
2023-08-23T15:31:15.566Z,5.47
2023-08-23T15:34:17.612Z,6.88
2023-08-23T15:37:21.438Z,6.00
2023-08-23T15:40:24.106Z,7.45
2023-08-23T15:43:26.248Z,6.03
2023-08-23T15:46:28.438Z,5.53
2023-08-23T15:49:30.672Z,8.05
2023-08-23T15:52:33.189Z,5.50
2023-08-23T15:55:35.481Z,5.82
2023-08-23T15:58:38.226Z,7.75
2023-08-23T16:01:40.700Z,6.70
2023-08-23T16:04:45.328Z,8.13
2023-08-23T16:07:50.743Z,7.20
2023-08-23T16:10:53.310Z,5.60
2023-08-23T16:13:55.414Z,5.82
2023-08-23T16:16:59.716Z,8.23
2023-08-23T16:20:01.839Z,5.95
2023-08-23T16:23:04.005Z,4.93
2023-08-23T16:26:06.171Z,5.47
2023-08-23T16:29:08.346Z,4.60
2023-08-23T16:32:10.368Z,5.82
2023-08-23T16:35:12.574Z,6.10
2023-08-23T16:38:14.833Z,4.25
2023-08-23T16:41:17.157Z,5.35
2023-08-23T16:44:19.192Z,5.22
2023-08-23T16:47:23.272Z,3.67
2023-08-23T16:50:27.189Z,4.90
2023-08-23T16:53:30.250Z,3.47
2023-08-23T16:56:32.375Z,3.78
2023-08-23T16:59:34.388Z,4.10
2023-08-23T17:02:39.770Z,3.67
2023-08-23T17:05:41.932Z,3.97
2023-08-23T17:08:44.052Z,5.05
2023-08-23T17:11:46.056Z,5.13
2023-08-23T17:14:48.095Z,4.10
2023-08-23T17:17:50.463Z,3.63
2023-08-23T17:21:02.372Z,4.07
2023-08-23T17:24:04.664Z,6.35
2023-08-23T17:27:07.011Z,7.05
2023-08-23T17:30:09.422Z,3.75
2023-08-23T17:33:11.625Z,5.07
2023-08-23T17:36:13.821Z,4.20
2023-08-23T17:39:18.351Z,5.25
2023-08-23T17:42:20.695Z,5.95
2023-08-23T17:45:22.788Z,5.13
2023-08-23T17:48:24.840Z,4.65
2023-08-23T17:51:27.101Z,5.13
2023-08-23T17:54:29.310Z,5.03
2023-08-23T17:57:31.416Z,5.40
2023-08-23T18:00:34.198Z,4.78
2023-08-23T18:03:36.423Z,5.57
2023-08-23T18:06:38.461Z,5.38
2023-08-23T18:09:40.586Z,5.63
2023-08-23T18:12:42.806Z,5.10
2023-08-23T18:15:47.608Z,6.57
2023-08-23T18:18:49.642Z,3.80
2023-08-23T18:21:51.669Z,4.25
2023-08-23T18:24:53.777Z,5.93
2023-08-23T18:27:55.854Z,5.03
2023-08-23T18:30:58.024Z,6.03
2023-08-23T18:34:00.106Z,5.45
2023-08-23T18:37:02.095Z,5.63
2023-08-23T18:40:05.818Z,4.72
2023-08-23T18:43:08.031Z,5.68
2023-08-23T18:46:10.400Z,5.57
2023-08-23T18:49:12.592Z,5.13
2023-08-23T18:52:14.601Z,4.80
2023-08-23T18:55:16.767Z,6.05
2023-08-23T18:58:18.990Z,4.53
2023-08-23T19:01:21.065Z,4.47
2023-08-23T19:04:23.317Z,5.85
2023-08-23T19:07:25.365Z,10.13
2023-08-23T19:10:27.433Z,5.22
2023-08-23T19:13:29.485Z,5.55
2023-08-23T19:16:31.561Z,5.45
2023-08-23T19:19:34.349Z,5.40
2023-08-23T19:22:36.699Z,6.43
2023-08-23T19:25:38.776Z,7.30
2023-08-23T19:28:40.921Z,6.40
2023-08-23T19:31:57.636Z,6.97
2023-08-23T19:34:59.755Z,6.53
2023-08-23T19:38:01.749Z,7.18
2023-08-23T19:41:03.923Z,6.50
2023-08-23T19:44:06.131Z,7.32
2023-08-23T19:47:08.723Z,6.97
2023-08-23T19:50:10.791Z,6.82
2023-08-23T19:53:12.948Z,7.75
2023-08-23T19:56:15.062Z,7.50
2023-08-23T19:59:17.511Z,5.88
2023-08-23T20:02:19.564Z,7.15
2023-08-23T20:05:22.602Z,7.63
2023-08-23T20:08:25.021Z,9.10
2023-08-23T20:11:27.122Z,8.20
2023-08-23T20:14:32.252Z,8.50
2023-08-23T20:17:34.861Z,6.43
2023-08-23T20:20:37.263Z,8.27
2023-08-23T20:23:39.402Z,6.13
2023-08-23T20:26:41.737Z,6.97
2023-08-23T20:29:45.249Z,6.50
2023-08-23T20:32:48.979Z,7.70
2023-08-23T20:35:52.585Z,6.78
2023-08-23T20:38:54.964Z,6.22
2023-08-23T20:41:57.100Z,7.38
2023-08-23T20:44:59.196Z,6.65
2023-08-23T20:48:02.424Z,6.65
2023-08-23T20:51:05.138Z,5.25
2023-08-23T20:54:07.226Z,7.00
2023-08-23T20:57:10.124Z,5.60
2023-08-23T21:00:12.419Z,6.57
2023-08-23T21:03:14.559Z,7.18
2023-08-23T21:06:16.765Z,5.88
2023-08-23T21:09:19.014Z,7.32
2023-08-23T21:12:21.267Z,6.88
2023-08-23T21:15:23.413Z,6.65
2023-08-23T21:18:26.822Z,7.97
2023-08-23T21:21:29.508Z,7.25
2023-08-23T21:24:31.707Z,6.32
2023-08-23T21:27:33.941Z,7.47
2023-08-23T21:30:36.381Z,7.05
2023-08-23T21:33:38.600Z,8.10
2023-08-23T21:36:41.173Z,7.85
2023-08-23T21:39:44.119Z,8.35
2023-08-23T21:42:46.490Z,8.32
2023-08-23T21:45:48.546Z,7.15
2023-08-23T21:48:50.671Z,7.28
2023-08-23T21:51:52.745Z,6.38
2023-08-23T21:54:54.889Z,7.35
2023-08-23T21:57:57.617Z,6.75
2023-08-23T22:01:03.890Z,7.57
2023-08-23T22:04:06.257Z,8.43
2023-08-23T22:07:08.352Z,7.90
2023-08-23T22:10:10.486Z,6.75
2023-08-23T22:13:12.583Z,6.65
2023-08-23T22:16:14.922Z,8.25
2023-08-23T22:19:17.068Z,7.35
2023-08-23T22:22:19.216Z,7.75
2023-08-23T22:25:21.435Z,7.95
2023-08-23T22:28:23.546Z,7.75
2023-08-23T22:31:26.227Z,6.40
2023-08-23T22:34:28.266Z,7.70
2023-08-23T22:37:30.260Z,7.43
2023-08-23T22:40:32.714Z,7.07
2023-08-23T22:43:34.883Z,6.60
2023-08-23T22:46:37.602Z,6.47
2023-08-23T22:49:39.796Z,6.43
2023-08-23T22:52:42.788Z,6.28
2023-08-23T22:55:44.858Z,7.78
2023-08-23T22:58:47.060Z,7.35
2023-08-23T23:01:49.283Z,6.70
2023-08-23T23:04:52.316Z,5.53
2023-08-23T23:07:54.423Z,6.53
2023-08-23T23:11:02.227Z,6.25
2023-08-23T23:14:04.320Z,5.57
2023-08-23T23:17:06.486Z,6.00
2023-08-23T23:20:16.843Z,6.03
2023-08-23T23:23:19.762Z,5.88
2023-08-23T23:26:21.837Z,5.28
2023-08-23T23:29:23.977Z,6.93
2023-08-23T23:32:26.123Z,6.57
2023-08-23T23:35:28.279Z,5.72
2023-08-23T23:38:30.734Z,6.00
2023-08-23T23:41:32.917Z,5.75
2023-08-23T23:44:35.150Z,5.82
2023-08-23T23:47:37.150Z,5.38
2023-08-23T23:50:39.379Z,6.60
2023-08-23T23:53:41.446Z,6.47
2023-08-23T23:56:43.487Z,5.53
2023-08-23T23:59:45.555Z,6.45
